sensor_id;sensor_type;location;lat;lon;timestamp;pressure;altitude;pressure_sealevel;temperature;humidity
43934;BME280;59081;42.706;23.306;2022-11-15T00:00:44;95784.97;;;4.58;81.63
43934;BME280;59081;42.706;23.306;2022-11-15T00:03:13;95713.88;;;4.11;80.81
43934;BME280;59081;42.706;23.306;2022-11-15T00:05:39;95695.91;;;4.03;80.24
43934;BME280;59081;42.706;23.306;2022-11-15T00:08:04;95844.44;;;5.10;79.81
43934;BME280;59081;42.706;23.306;2022-11-15T00:10:30;95795.19;;;4.75;79.81
43934;BME280;59081;42.706;23.306;2022-11-15T00:12:55;95858.13;;;5.17;79.50
43934;BME280;59081;42.706;23.306;2022-11-15T00:15:21;95659.56;;;3.78;79.32
43934;BME280;59081;42.706;23.306;2022-11-15T00:17:49;95716.63;;;4.15;79.50
43934;BME280;59081;42.706;23.306;2022-11-15T00:20:15;95781.84;;;4.55;79.62
43934;BME280;59081;42.706;23.306;2022-11-15T00:22:42;95858.06;;;5.03;79.72
43934;BME280;59081;42.706;23.306;2022-11-15T00:25:07;95756.81;;;4.36;79.77
43934;BME280;59081;42.706;23.306;2022-11-15T00:27:33;95783.41;;;4.49;79.80
43934;BME280;59081;42.706;23.306;2022-11-15T00:29:58;95705.63;;;4.04;79.88
43934;BME280;59081;42.706;23.306;2022-11-15T00:32:24;95649.75;;;3.66;80.20
43934;BME280;59081;42.706;23.306;2022-11-15T00:34:49;95724.78;;;4.18;80.70
43934;BME280;59081;42.706;23.306;2022-11-15T00:37:15;95796.31;;;4.63;80.44
43934;BME280;59081;42.706;23.306;2022-11-15T00:39:40;95680.59;;;3.81;80.32
43934;BME280;59081;42.706;23.306;2022-11-15T00:42:06;95732.56;;;4.16;80.10
43934;BME280;59081;42.706;23.306;2022-11-15T00:44:32;95689.56;;;3.85;80.38
43934;BME280;59081;42.706;23.306;2022-11-15T00:46:57;95663.03;;;3.71;80.58
43934;BME280;59081;42.706;23.306;2022-11-15T00:49:22;95841.13;;;4.62;81.05
43934;BME280;59081;42.706;23.306;2022-11-15T00:51:48;95752.41;;;4.10;80.98
43934;BME280;59081;42.706;23.306;2022-11-15T00:54:13;95726.25;;;3.95;81.23
43934;BME280;59081;42.706;23.306;2022-11-15T00:56:39;95816.97;;;4.61;81.12
43934;BME280;59081;42.706;23.306;2022-11-15T00:59:04;95752.84;;;4.19;80.94
43934;BME280;59081;42.706;23.306;2022-11-15T01:01:30;95791.09;;;4.33;81.11
43934;BME280;59081;42.706;23.306;2022-11-15T01:03:55;95828.91;;;4.38;81.81
43934;BME280;59081;42.706;23.306;2022-11-15T01:06:21;95752.94;;;3.71;83.10
43934;BME280;59081;42.706;23.306;2022-11-15T01:08:46;95815.97;;;4.21;83.60
43934;BME280;59081;42.706;23.306;2022-11-15T01:11:12;95705.03;;;3.63;83.50
43934;BME280;59081;42.706;23.306;2022-11-15T01:13:38;95639.38;;;3.21;83.07
43934;BME280;59081;42.706;23.306;2022-11-15T01:16:16;95804.34;;;4.31;82.62
43934;BME280;59081;42.706;23.306;2022-11-15T01:18:42;95782.31;;;3.99;82.36
43934;BME280;59081;42.706;23.306;2022-11-15T01:21:10;95837.84;;;4.32;83.98
43934;BME280;59081;42.706;23.306;2022-11-15T01:23:36;95836.19;;;4.13;84.94
43934;BME280;59081;42.706;23.306;2022-11-15T01:26:04;95820.69;;;4.28;84.08
43934;BME280;59081;42.706;23.306;2022-11-15T01:28:32;95798.88;;;4.28;82.65
43934;BME280;59081;42.706;23.306;2022-11-15T01:31:02;95765.25;;;4.09;81.90
43934;BME280;59081;42.706;23.306;2022-11-15T01:33:28;95827.81;;;4.53;81.39
43934;BME280;59081;42.706;23.306;2022-11-15T01:35:54;95706.69;;;3.78;80.91
43934;BME280;59081;42.706;23.306;2022-11-15T01:38:19;95759.44;;;4.11;80.39
43934;BME280;59081;42.706;23.306;2022-11-15T01:40:45;95658.19;;;3.47;80.24
43934;BME280;59081;42.706;23.306;2022-11-15T01:43:25;95823.19;;;4.58;80.64
43934;BME280;59081;42.706;23.306;2022-11-15T01:48:38;95627.75;;;3.27;80.84
43934;BME280;59081;42.706;23.306;2022-11-15T01:51:07;95707.09;;;3.84;81.11
43934;BME280;59081;42.706;23.306;2022-11-15T01:53:33;95744.19;;;4.03;81.12
43934;BME280;59081;42.706;23.306;2022-11-15T01:56:04;95630.09;;;3.32;81.28
43934;BME280;59081;42.706;23.306;2022-11-15T01:58:32;95795.03;;;4.39;80.99
43934;BME280;59081;42.706;23.306;2022-11-15T02:00:58;95685.22;;;3.73;81.10
43934;BME280;59081;42.706;23.306;2022-11-15T02:03:26;95767.31;;;4.30;81.10
43934;BME280;59081;42.706;23.306;2022-11-15T02:05:57;95710.66;;;3.92;80.85
43934;BME280;59081;42.706;23.306;2022-11-15T02:08:23;95654.38;;;3.55;80.56
43934;BME280;59081;42.706;23.306;2022-11-15T02:10:48;95785.66;;;4.37;81.02
43934;BME280;59081;42.706;23.306;2022-11-15T02:13:15;95720.03;;;4.01;80.36
43934;BME280;59081;42.706;23.306;2022-11-15T02:18:41;95680.88;;;3.65;80.44
43934;BME280;59081;42.706;23.306;2022-11-15T02:29:50;95805.97;;;4.46;81.08
43934;BME280;59081;42.706;23.306;2022-11-15T02:38:11;95769.19;;;4.12;81.94
43934;BME280;59081;42.706;23.306;2022-11-15T02:40:46;95709.81;;;3.80;82.25
43934;BME280;59081;42.706;23.306;2022-11-15T02:43:26;95771.56;;;4.24;82.16
43934;BME280;59081;42.706;23.306;2022-11-15T02:48:48;95728.59;;;3.96;82.97
43934;BME280;59081;42.706;23.306;2022-11-15T02:51:14;95732.47;;;3.99;83.35
43934;BME280;59081;42.706;23.306;2022-11-15T02:53:41;95681.28;;;3.67;83.31
43934;BME280;59081;42.706;23.306;2022-11-15T02:56:09;95709.84;;;3.91;83.57
43934;BME280;59081;42.706;23.306;2022-11-15T03:06:50;95723.53;;;4.02;83.58
43934;BME280;59081;42.706;23.306;2022-11-15T03:12:14;95817.34;;;4.59;83.57
43934;BME280;59081;42.706;23.306;2022-11-15T03:15:01;95801.75;;;4.60;83.31
43934;BME280;59081;42.706;23.306;2022-11-15T03:17:35;95756.00;;;4.28;83.53
43934;BME280;59081;42.706;23.306;2022-11-15T03:20:04;95735.75;;;4.26;83.50
43934;BME280;59081;42.706;23.306;2022-11-15T03:22:42;95697.03;;;3.99;83.38
43934;BME280;59081;42.706;23.306;2022-11-15T03:25:10;95662.28;;;3.74;83.19
43934;BME280;59081;42.706;23.306;2022-11-15T03:27:43;95781.44;;;4.46;83.14
43934;BME280;59081;42.706;23.306;2022-11-15T03:30:12;95709.94;;;4.05;83.36
43934;BME280;59081;42.706;23.306;2022-11-15T03:32:46;95795.16;;;4.68;83.12
43934;BME280;59081;42.706;23.306;2022-11-15T03:35:17;95642.00;;;3.68;82.92
43934;BME280;59081;42.706;23.306;2022-11-15T03:40:38;95754.06;;;4.25;82.53
43934;BME280;59081;42.706;23.306;2022-11-15T03:43:13;95731.72;;;3.98;82.97
43934;BME280;59081;42.706;23.306;2022-11-15T03:45:52;95714.31;;;3.55;84.49
43934;BME280;59081;42.706;23.306;2022-11-15T03:48:25;95630.22;;;2.95;85.82
43934;BME280;59081;42.706;23.306;2022-11-15T03:50:52;95658.34;;;3.13;85.76
43934;BME280;59081;42.706;23.306;2022-11-15T03:53:17;95653.31;;;3.15;85.49
43934;BME280;59081;42.706;23.306;2022-11-15T03:55:43;95788.50;;;3.89;85.98
43934;BME280;59081;42.706;23.306;2022-11-15T03:58:09;95565.72;;;2.48;86.09
43934;BME280;59081;42.706;23.306;2022-11-15T04:00:34;95565.47;;;2.64;86.22
43934;BME280;59081;42.706;23.306;2022-11-15T04:03:00;95749.13;;;3.79;86.00
43934;BME280;59081;42.706;23.306;2022-11-15T04:05:25;95598.63;;;2.80;86.10
43934;BME280;59081;42.706;23.306;2022-11-15T04:07:51;95669.75;;;3.30;85.97
43934;BME280;59081;42.706;23.306;2022-11-15T04:10:17;95625.69;;;3.13;86.16
43934;BME280;59081;42.706;23.306;2022-11-15T04:12:44;95770.31;;;4.07;86.08
43934;BME280;59081;42.706;23.306;2022-11-15T04:15:13;95749.91;;;3.80;86.40
43934;BME280;59081;42.706;23.306;2022-11-15T04:17:53;95574.72;;;2.56;87.36
43934;BME280;59081;42.706;23.306;2022-11-15T04:20:22;95655.28;;;3.19;87.44
43934;BME280;59081;42.706;23.306;2022-11-15T04:23:09;95563.53;;;2.64;87.31
43934;BME280;59081;42.706;23.306;2022-11-15T04:25:55;95767.88;;;3.92;87.58
43934;BME280;59081;42.706;23.306;2022-11-15T04:28:22;95740.53;;;3.77;88.11
43934;BME280;59081;42.706;23.306;2022-11-15T04:30:47;95668.53;;;3.20;88.68
43934;BME280;59081;42.706;23.306;2022-11-15T04:33:13;95692.34;;;3.34;88.61
43934;BME280;59081;42.706;23.306;2022-11-15T04:35:39;95666.25;;;3.26;88.86
43934;BME280;59081;42.706;23.306;2022-11-15T04:38:06;95654.72;;;2.95;89.19
43934;BME280;59081;42.706;23.306;2022-11-15T04:40:32;95755.25;;;3.69;89.69
43934;BME280;59081;42.706;23.306;2022-11-15T04:42:58;95580.59;;;2.61;89.65
43934;BME280;59081;42.706;23.306;2022-11-15T04:45:23;95647.13;;;3.19;89.72
43934;BME280;59081;42.706;23.306;2022-11-15T04:47:49;95739.78;;;3.80;89.21
43934;BME280;59081;42.706;23.306;2022-11-15T04:50:15;95693.97;;;3.42;89.17
43934;BME280;59081;42.706;23.306;2022-11-15T04:52:52;95703.41;;;3.55;89.13
43934;BME280;59081;42.706;23.306;2022-11-15T04:55:18;95730.81;;;3.80;88.82
43934;BME280;59081;42.706;23.306;2022-11-15T04:57:43;95594.47;;;2.97;88.29
43934;BME280;59081;42.706;23.306;2022-11-15T05:00:11;95678.84;;;3.48;87.71
43934;BME280;59081;42.706;23.306;2022-11-15T05:02:38;95647.63;;;3.35;87.71
43934;BME280;59081;42.706;23.306;2022-11-15T05:05:23;95638.66;;;3.31;87.86
43934;BME280;59081;42.706;23.306;2022-11-15T05:07:49;95739.47;;;3.93;88.06
43934;BME280;59081;42.706;23.306;2022-11-15T05:10:14;95678.53;;;3.64;87.87
43934;BME280;59081;42.706;23.306;2022-11-15T05:12:40;95705.91;;;3.78;88.05
43934;BME280;59081;42.706;23.306;2022-11-15T05:15:05;95768.41;;;4.18;88.17
43934;BME280;59081;42.706;23.306;2022-11-15T05:17:31;95613.28;;;3.89;95.65
43934;BME280;59081;42.706;23.306;2022-11-15T05:19:57;95770.00;;;5.91;100.00
43934;BME280;59081;42.706;23.306;2022-11-15T05:22:22;95632.59;;;4.67;94.99
43934;BME280;59081;42.706;23.306;2022-11-15T05:24:48;95615.00;;;4.29;88.27
43934;BME280;59081;42.706;23.306;2022-11-15T05:27:13;95678.97;;;4.60;85.93
43934;BME280;59081;42.706;23.306;2022-11-15T05:29:39;95691.03;;;4.55;85.37
43934;BME280;59081;42.706;23.306;2022-11-15T05:32:06;95671.88;;;4.30;85.38
43934;BME280;59081;42.706;23.306;2022-11-15T05:34:32;95624.38;;;3.52;86.99
43934;BME280;59081;42.706;23.306;2022-11-15T05:36:58;95609.19;;;3.47;87.38
43934;BME280;59081;42.706;23.306;2022-11-15T05:39:24;95760.81;;;4.56;89.30
43934;BME280;59081;42.706;23.306;2022-11-15T05:42:07;95678.78;;;4.06;91.19
43934;BME280;59081;42.706;23.306;2022-11-15T05:44:35;95772.91;;;4.59;89.55
43934;BME280;59081;42.706;23.306;2022-11-15T05:47:02;95770.94;;;4.55;88.82
43934;BME280;59081;42.706;23.306;2022-11-15T05:49:31;95656.06;;;3.77;88.15
43934;BME280;59081;42.706;23.306;2022-11-15T05:51:59;95654.50;;;3.76;87.80
43934;BME280;59081;42.706;23.306;2022-11-15T05:54:25;95678.66;;;3.78;87.87
43934;BME280;59081;42.706;23.306;2022-11-15T05:56:52;95771.22;;;4.29;88.04
43934;BME280;59081;42.706;23.306;2022-11-15T05:59:18;95698.09;;;3.76;87.81
43934;BME280;59081;42.706;23.306;2022-11-15T06:01:44;95748.81;;;3.99;88.11
43934;BME280;59081;42.706;23.306;2022-11-15T06:04:09;95669.94;;;3.55;88.18
43934;BME280;59081;42.706;23.306;2022-11-15T06:06:35;95750.75;;;3.91;89.00
43934;BME280;59081;42.706;23.306;2022-11-15T06:09:00;95710.00;;;3.54;89.96
43934;BME280;59081;42.706;23.306;2022-11-15T06:11:25;95789.03;;;4.16;90.53
43934;BME280;59081;42.706;23.306;2022-11-15T06:13:51;95581.16;;;2.85;89.95
43934;BME280;59081;42.706;23.306;2022-11-15T06:16:16;95784.03;;;4.22;89.90
43934;BME280;59081;42.706;23.306;2022-11-15T06:18:42;95767.56;;;4.04;89.59
43934;BME280;59081;42.706;23.306;2022-11-15T06:21:07;95742.19;;;3.93;89.40
43934;BME280;59081;42.706;23.306;2022-11-15T06:23:34;95680.09;;;3.61;89.23
43934;BME280;59081;42.706;23.306;2022-11-15T06:26:01;95717.25;;;3.91;89.30
43934;BME280;59081;42.706;23.306;2022-11-15T06:28:28;95721.59;;;4.02;89.01
43934;BME280;59081;42.706;23.306;2022-11-15T06:30:54;95713.00;;;3.97;89.00
43934;BME280;59081;42.706;23.306;2022-11-15T06:33:20;95711.53;;;4.10;88.99
43934;BME280;59081;42.706;23.306;2022-11-15T06:35:45;95636.41;;;3.47;89.49
43934;BME280;59081;42.706;23.306;2022-11-15T06:38:11;95678.66;;;3.85;90.07
43934;BME280;59081;42.706;23.306;2022-11-15T06:40:37;95758.09;;;4.60;90.38
43934;BME280;59081;42.706;23.306;2022-11-15T06:43:04;95616.28;;;3.62;89.23
43934;BME280;59081;42.706;23.306;2022-11-15T06:45:30;95639.50;;;3.42;89.72
43934;BME280;59081;42.706;23.306;2022-11-15T06:47:55;95610.25;;;3.32;90.31
43934;BME280;59081;42.706;23.306;2022-11-15T06:50:21;95660.63;;;3.59;90.47
43934;BME280;59081;42.706;23.306;2022-11-15T06:52:46;95737.69;;;4.25;90.64
43934;BME280;59081;42.706;23.306;2022-11-15T06:55:12;95658.38;;;3.75;89.92
43934;BME280;59081;42.706;23.306;2022-11-15T06:57:46;95655.53;;;3.54;90.84
43934;BME280;59081;42.706;23.306;2022-11-15T07:00:12;95779.41;;;4.36;90.95
43934;BME280;59081;42.706;23.306;2022-11-15T07:02:37;95576.41;;;3.26;90.79
43934;BME280;59081;42.706;23.306;2022-11-15T07:05:03;95645.50;;;3.69;90.14
43934;BME280;59081;42.706;23.306;2022-11-15T07:07:29;95658.78;;;3.77;90.18
43934;BME280;59081;42.706;23.306;2022-11-15T07:09:54;95643.63;;;3.83;90.22
43934;BME280;59081;42.706;23.306;2022-11-15T07:12:19;95677.19;;;3.95;90.17
43934;BME280;59081;42.706;23.306;2022-11-15T07:14:45;95731.16;;;4.51;89.97
43934;BME280;59081;42.706;23.306;2022-11-15T07:17:11;95556.59;;;3.36;89.08
43934;BME280;59081;42.706;23.306;2022-11-15T07:19:36;95667.91;;;4.17;89.04
43934;BME280;59081;42.706;23.306;2022-11-15T07:22:02;95651.53;;;4.06;89.09
43934;BME280;59081;42.706;23.306;2022-11-15T07:24:27;95759.75;;;4.89;88.98
43934;BME280;59081;42.706;23.306;2022-11-15T07:26:53;95765.19;;;4.89;88.45
43934;BME280;59081;42.706;23.306;2022-11-15T07:29:18;95653.41;;;3.99;88.51
43934;BME280;59081;42.706;23.306;2022-11-15T07:31:44;95724.88;;;4.36;89.23
43934;BME280;59081;42.706;23.306;2022-11-15T07:34:09;95604.75;;;3.21;91.09
43934;BME280;59081;42.706;23.306;2022-11-15T07:36:35;95630.22;;;3.50;91.55
43934;BME280;59081;42.706;23.306;2022-11-15T07:39:00;95570.91;;;3.19;91.40
43934;BME280;59081;42.706;23.306;2022-11-15T07:41:26;95655.13;;;3.52;92.29
43934;BME280;59081;42.706;23.306;2022-11-15T07:43:51;95691.94;;;3.90;92.73
43934;BME280;59081;42.706;23.306;2022-11-15T07:46:18;95716.53;;;3.97;92.91
43934;BME280;59081;42.706;23.306;2022-11-15T07:48:43;95639.66;;;3.67;93.62
43934;BME280;59081;42.706;23.306;2022-11-15T07:51:15;95687.38;;;4.08;93.09
43934;BME280;59081;42.706;23.306;2022-11-15T07:53:42;95712.13;;;3.82;93.15
43934;BME280;59081;42.706;23.306;2022-11-15T07:56:08;95687.22;;;3.83;92.68
43934;BME280;59081;42.706;23.306;2022-11-15T07:58:34;95643.53;;;3.62;92.73
43934;BME280;59081;42.706;23.306;2022-11-15T08:01:04;95574.13;;;3.38;92.24
43934;BME280;59081;42.706;23.306;2022-11-15T08:03:30;95682.75;;;4.23;92.09
43934;BME280;59081;42.706;23.306;2022-11-15T08:05:56;95768.66;;;4.75;91.70
43934;BME280;59081;42.706;23.306;2022-11-15T08:08:21;95732.03;;;4.76;91.12
43934;BME280;59081;42.706;23.306;2022-11-15T08:10:47;95757.81;;;4.97;90.74
43934;BME280;59081;42.706;23.306;2022-11-15T08:13:13;95639.16;;;4.30;89.76
43934;BME280;59081;42.706;23.306;2022-11-15T08:15:39;95696.19;;;4.81;89.07
43934;BME280;59081;42.706;23.306;2022-11-15T08:18:15;95637.59;;;4.36;88.93
43934;BME280;59081;42.706;23.306;2022-11-15T08:20:42;95749.66;;;5.14;88.80
43934;BME280;59081;42.706;23.306;2022-11-15T08:23:09;95707.91;;;4.96;88.56
43934;BME280;59081;42.706;23.306;2022-11-15T08:25:35;95703.59;;;5.02;87.81
43934;BME280;59081;42.706;23.306;2022-11-15T08:28:04;95739.91;;;5.20;87.91
43934;BME280;59081;42.706;23.306;2022-11-15T08:30:30;95747.34;;;5.34;87.76
43934;BME280;59081;42.706;23.306;2022-11-15T08:32:59;95645.47;;;4.63;87.06
43934;BME280;59081;42.706;23.306;2022-11-15T08:35:25;95639.19;;;4.51;87.44
43934;BME280;59081;42.706;23.306;2022-11-15T08:37:52;95689.56;;;5.04;87.56
43934;BME280;59081;42.706;23.306;2022-11-15T08:40:18;95665.00;;;4.93;87.09
43934;BME280;59081;42.706;23.306;2022-11-15T08:42:48;95533.53;;;4.16;86.42
43934;BME280;59081;42.706;23.306;2022-11-15T08:45:13;95655.66;;;5.01;86.28
43934;BME280;59081;42.706;23.306;2022-11-15T08:47:39;95570.22;;;4.44;86.06
43934;BME280;59081;42.706;23.306;2022-11-15T08:50:05;95598.63;;;4.39;87.17
43934;BME280;59081;42.706;23.306;2022-11-15T08:52:31;95701.31;;;5.18;87.11
43934;BME280;59081;42.706;23.306;2022-11-15T08:54:57;95609.59;;;4.71;86.89
43934;BME280;59081;42.706;23.306;2022-11-15T08:57:23;95737.22;;;5.52;86.34
43934;BME280;59081;42.706;23.306;2022-11-15T08:59:48;95611.94;;;4.87;85.94
43934;BME280;59081;42.706;23.306;2022-11-15T09:02:14;95507.84;;;4.28;85.42
43934;BME280;59081;42.706;23.306;2022-11-15T09:04:41;95623.63;;;5.05;85.40
43934;BME280;59081;42.706;23.306;2022-11-15T09:07:07;95583.88;;;4.94;84.78
43934;BME280;59081;42.706;23.306;2022-11-15T09:09:32;95683.69;;;5.58;84.97
43934;BME280;59081;42.706;23.306;2022-11-15T09:11:58;95588.56;;;5.00;84.41
43934;BME280;59081;42.706;23.306;2022-11-15T09:14:23;95640.41;;;5.32;84.06
43934;BME280;59081;42.706;23.306;2022-11-15T09:16:49;95593.22;;;5.10;84.62
43934;BME280;59081;42.706;23.306;2022-11-15T09:19:14;95597.13;;;5.06;84.35
43934;BME280;59081;42.706;23.306;2022-11-15T09:21:40;95675.13;;;5.67;84.07
43934;BME280;59081;42.706;23.306;2022-11-15T09:24:06;95594.78;;;5.11;84.00
43934;BME280;59081;42.706;23.306;2022-11-15T09:26:31;95529.69;;;4.81;83.83
43934;BME280;59081;42.706;23.306;2022-11-15T09:28:56;95621.66;;;5.41;83.47
43934;BME280;59081;42.706;23.306;2022-11-15T09:31:22;95590.88;;;5.34;83.66
43934;BME280;59081;42.706;23.306;2022-11-15T09:33:47;95682.88;;;5.93;83.73
43934;BME280;59081;42.706;23.306;2022-11-15T09:36:13;95530.06;;;4.94;84.04
43934;BME280;59081;42.706;23.306;2022-11-15T09:38:38;95552.22;;;5.21;83.34
43934;BME280;59081;42.706;23.306;2022-11-15T09:49:08;95666.56;;;5.37;86.74
43934;BME280;59081;42.706;23.306;2022-11-15T09:51:37;95626.75;;;4.86;88.58
43934;BME280;59081;42.706;23.306;2022-11-15T09:54:33;95612.75;;;4.98;88.57
43934;BME280;59081;42.706;23.306;2022-11-15T10:04:51;95549.50;;;5.32;85.74
43934;BME280;59081;42.706;23.306;2022-11-15T10:07:27;95534.63;;;5.40;84.47
43934;BME280;59081;42.706;23.306;2022-11-15T10:10:01;95632.41;;;6.19;83.92
43934;BME280;59081;42.706;23.306;2022-11-15T10:12:30;95508.78;;;5.66;84.23
43934;BME280;59081;42.706;23.306;2022-11-15T10:15:13;95621.31;;;6.48;82.74
43934;BME280;59081;42.706;23.306;2022-11-15T10:20:22;95544.50;;;6.17;80.63
43934;BME280;59081;42.706;23.306;2022-11-15T10:23:02;95616.97;;;6.57;80.50
43934;BME280;59081;42.706;23.306;2022-11-15T10:25:33;95490.38;;;5.80;81.23
43934;BME280;59081;42.706;23.306;2022-11-15T10:28:09;95531.94;;;6.23;80.94
43934;BME280;59081;42.706;23.306;2022-11-15T10:30:41;95582.38;;;6.81;80.62
43934;BME280;59081;42.706;23.306;2022-11-15T10:35:41;95526.41;;;6.86;78.84
43934;BME280;59081;42.706;23.306;2022-11-15T10:38:10;95475.03;;;7.01;77.32
43934;BME280;59081;42.706;23.306;2022-11-15T10:40:37;95458.22;;;6.98;76.10
43934;BME280;59081;42.706;23.306;2022-11-15T10:45:34;95572.53;;;8.37;73.85
43934;BME280;59081;42.706;23.306;2022-11-15T10:48:29;95559.75;;;8.54;73.13
43934;BME280;59081;42.706;23.306;2022-11-15T10:50:55;95451.47;;;8.01;71.89
43934;BME280;59081;42.706;23.306;2022-11-15T10:53:26;95523.34;;;8.73;70.83
43934;BME280;59081;42.706;23.306;2022-11-15T10:55:56;95440.56;;;8.25;70.49
43934;BME280;59081;42.706;23.306;2022-11-15T10:58:30;95547.72;;;9.41;69.01
43934;BME280;59081;42.706;23.306;2022-11-15T11:01:16;95482.03;;;9.04;67.88
43934;BME280;59081;42.706;23.306;2022-11-15T11:03:44;95466.75;;;8.80;68.41
43934;BME280;59081;42.706;23.306;2022-11-15T11:06:19;95410.38;;;8.25;69.56
43934;BME280;59081;42.706;23.306;2022-11-15T11:09:05;95505.91;;;9.30;67.91
43934;BME280;59081;42.706;23.306;2022-11-15T11:11:50;95450.00;;;9.37;66.12
43934;BME280;59081;42.706;23.306;2022-11-15T11:14:25;95421.78;;;9.53;64.99
43934;BME280;59081;42.706;23.306;2022-11-15T11:20:20;95503.19;;;10.78;62.06
43934;BME280;59081;42.706;23.306;2022-11-15T11:25:39;95516.19;;;11.10;60.92
43934;BME280;59081;42.706;23.306;2022-11-15T11:31:13;95345.31;;;10.65;58.64
43934;BME280;59081;42.706;23.306;2022-11-15T11:39:31;95375.34;;;11.46;57.06
43934;BME280;59081;42.706;23.306;2022-11-15T11:42:15;95359.50;;;11.63;55.94
43934;BME280;59081;42.706;23.306;2022-11-15T11:47:51;95321.28;;;11.36;56.05
43934;BME280;59081;42.706;23.306;2022-11-15T11:50:23;95387.06;;;12.04;55.02
43934;BME280;59081;42.706;23.306;2022-11-15T11:55:20;95357.56;;;12.39;53.54
43934;BME280;59081;42.706;23.306;2022-11-15T11:57:53;95333.81;;;12.16;53.80
43934;BME280;59081;42.706;23.306;2022-11-15T12:00:25;95310.63;;;12.27;53.30
43934;BME280;59081;42.706;23.306;2022-11-15T12:03:09;95438.47;;;13.34;52.29
43934;BME280;59081;42.706;23.306;2022-11-15T12:05:42;95434.19;;;13.77;51.40
43934;BME280;59081;42.706;23.306;2022-11-15T12:08:25;95432.78;;;13.72;51.01
43934;BME280;59081;42.706;23.306;2022-11-15T12:11:04;95339.78;;;12.75;51.70
43934;BME280;59081;42.706;23.306;2022-11-15T12:13:30;95316.41;;;12.88;51.67
43934;BME280;59081;42.706;23.306;2022-11-15T12:16:14;95392.50;;;13.28;51.65
43934;BME280;59081;42.706;23.306;2022-11-15T12:18:46;95333.53;;;13.18;51.50
43934;BME280;59081;42.706;23.306;2022-11-15T12:21:14;95413.34;;;13.41;52.32
43934;BME280;59081;42.706;23.306;2022-11-15T12:23:48;95394.19;;;13.12;52.35
43934;BME280;59081;42.706;23.306;2022-11-15T12:26:22;95316.84;;;12.52;52.45
43934;BME280;59081;42.706;23.306;2022-11-15T12:28:57;95399.94;;;13.62;52.07
43934;BME280;59081;42.706;23.306;2022-11-15T12:31:56;95393.09;;;13.97;50.45
43934;BME280;59081;42.706;23.306;2022-11-15T12:36:53;95273.19;;;13.47;49.67
43934;BME280;59081;42.706;23.306;2022-11-15T12:39:19;95278.91;;;13.93;48.37
43934;BME280;59081;42.706;23.306;2022-11-15T12:52:08;95294.53;;;13.16;51.06
43934;BME280;59081;42.706;23.306;2022-11-15T13:00:00;95323.09;;;13.66;50.67
43934;BME280;59081;42.706;23.306;2022-11-15T13:02:36;95368.16;;;13.97;50.65
43934;BME280;59081;42.706;23.306;2022-11-15T13:17:38;95350.41;;;14.16;49.93
43934;BME280;59081;42.706;23.306;2022-11-15T13:22:47;95313.59;;;13.76;51.06
43934;BME280;59081;42.706;23.306;2022-11-15T13:30:53;95287.22;;;13.09;53.39
43934;BME280;59081;42.706;23.306;2022-11-15T13:33:37;95150.97;;;12.00;53.55
43934;BME280;59081;42.706;23.306;2022-11-15T13:36:15;95203.53;;;12.31;54.16
43934;BME280;59081;42.706;23.306;2022-11-15T13:38:42;95331.44;;;12.87;54.37
43934;BME280;59081;42.706;23.306;2022-11-15T13:41:23;95274.53;;;12.08;55.65
43934;BME280;59081;42.706;23.306;2022-11-15T13:43:52;95273.91;;;11.92;56.83
43934;BME280;59081;42.706;23.306;2022-11-15T13:46:20;95223.88;;;11.51;57.01
43934;BME280;59081;42.706;23.306;2022-11-15T13:48:51;95229.19;;;11.59;56.80
43934;BME280;59081;42.706;23.306;2022-11-15T13:51:28;95324.44;;;12.14;57.96
43934;BME280;59081;42.706;23.306;2022-11-15T13:56:35;95146.97;;;10.65;58.83
43934;BME280;59081;42.706;23.306;2022-11-15T13:59:14;95192.53;;;10.95;59.03
43934;BME280;59081;42.706;23.306;2022-11-15T14:01:42;95189.66;;;10.86;59.37
43934;BME280;59081;42.706;23.306;2022-11-15T14:04:13;95320.34;;;11.68;59.64
43934;BME280;59081;42.706;23.306;2022-11-15T14:06:49;95250.31;;;11.11;59.84
43934;BME280;59081;42.706;23.306;2022-11-15T14:09:32;95316.47;;;11.52;60.13
43934;BME280;59081;42.706;23.306;2022-11-15T14:11:58;95193.25;;;10.70;60.32
43934;BME280;59081;42.706;23.306;2022-11-15T14:14:26;95171.59;;;10.43;60.65
43934;BME280;59081;42.706;23.306;2022-11-15T14:16:57;95215.88;;;10.49;61.20
43934;BME280;59081;42.706;23.306;2022-11-15T14:22:18;95314.06;;;11.13;61.70
43934;BME280;59081;42.706;23.306;2022-11-15T14:25:03;95303.44;;;10.99;62.45
43934;BME280;59081;42.706;23.306;2022-11-15T14:27:30;95285.03;;;10.67;62.83
43934;BME280;59081;42.706;23.306;2022-11-15T14:29:56;95228.69;;;10.10;64.06
43934;BME280;59081;42.706;23.306;2022-11-15T14:32:23;95247.94;;;10.10;64.64
43934;BME280;59081;42.706;23.306;2022-11-15T14:35:01;95257.06;;;10.07;64.80
43934;BME280;59081;42.706;23.306;2022-11-15T14:37:30;95220.81;;;9.80;65.35
43934;BME280;59081;42.706;23.306;2022-11-15T14:40:03;95191.56;;;9.53;65.39
43934;BME280;59081;42.706;23.306;2022-11-15T14:42:29;95224.41;;;9.60;66.11
43934;BME280;59081;42.706;23.306;2022-11-15T14:44:55;95199.31;;;9.26;66.40
43934;BME280;59081;42.706;23.306;2022-11-15T14:47:20;95250.88;;;9.54;67.08
43934;BME280;59081;42.706;23.306;2022-11-15T14:49:46;95193.25;;;8.62;68.60
43934;BME280;59081;42.706;23.306;2022-11-15T14:52:31;95299.16;;;9.19;69.78
43934;BME280;59081;42.706;23.306;2022-11-15T14:55:03;95219.22;;;8.38;70.68
43934;BME280;59081;42.706;23.306;2022-11-15T14:57:30;95205.69;;;8.27;71.50
43934;BME280;59081;42.706;23.306;2022-11-15T14:59:55;95192.84;;;8.01;71.67
43934;BME280;59081;42.706;23.306;2022-11-15T15:02:23;95317.38;;;8.73;72.45
43934;BME280;59081;42.706;23.306;2022-11-15T15:04:49;95175.00;;;7.69;72.52
43934;BME280;59081;42.706;23.306;2022-11-15T15:07:16;95315.31;;;8.58;73.18
43934;BME280;59081;42.706;23.306;2022-11-15T15:09:42;95280.44;;;8.35;73.57
43934;BME280;59081;42.706;23.306;2022-11-15T15:12:26;95215.34;;;7.92;73.11